sensor_id;sensor_type;location;lat;lon;timestamp;P1;durP1;ratioP1;P2;durP2;ratioP2
77802;SDS011;66993;48.256;16.422;2023-08-06T00:01:47;2.2;;;1.4;;
77802;SDS011;66993;48.256;16.422;2023-08-06T00:06:48;1.3;;;1.2;;
77802;SDS011;66993;48.256;16.422;2023-08-06T00:11:50;1.5;;;0.8;;
77802;SDS011;66993;48.256;16.422;2023-08-06T00:16:51;1.0;;;0.9;;
77802;SDS011;66993;48.256;16.422;2023-08-06T00:21:52;1.5;;;1.1;;
77802;SDS011;66993;48.256;16.422;2023-08-06T00:26:54;2.0;;;1.1;;
77802;SDS011;66993;48.256;16.422;2023-08-06T00:31:55;1.8;;;1.0;;
77802;SDS011;66993;48.256;16.422;2023-08-06T00:36:56;1.6;;;0.8;;
77802;SDS011;66993;48.256;16.422;2023-08-06T00:41:58;0.9;;;0.8;;
77802;SDS011;66993;48.256;16.422;2023-08-06T00:46:59;1.0;;;0.9;;
77802;SDS011;66993;48.256;16.422;2023-08-06T00:52:01;1.4;;;1.1;;
77802;SDS011;66993;48.256;16.422;2023-08-06T00:57:01;1.2;;;1.1;;
77802;SDS011;66993;48.256;16.422;2023-08-06T01:02:03;1.0;;;0.9;;
77802;SDS011;66993;48.256;16.422;2023-08-06T01:07:06;1.0;;;0.9;;
77802;SDS011;66993;48.256;16.422;2023-08-06T01:12:08;1.4;;;1.1;;
77802;SDS011;66993;48.256;16.422;2023-08-06T01:17:06;1.4;;;1.3;;
77802;SDS011;66993;48.256;16.422;2023-08-06T01:22:08;1.1;;;1.0;;
77802;SDS011;66993;48.256;16.422;2023-08-06T01:27:11;0.9;;;0.8;;
77802;SDS011;66993;48.256;16.422;2023-08-06T01:32:11;0.7;;;0.7;;
77802;SDS011;66993;48.256;16.422;2023-08-06T01:37:12;1.0;;;0.9;;
77802;SDS011;66993;48.256;16.422;2023-08-06T01:42:13;1.3;;;1.1;;
77802;SDS011;66993;48.256;16.422;2023-08-06T01:47:14;1.7;;;1.0;;
77802;SDS011;66993;48.256;16.422;2023-08-06T01:52:15;0.9;;;0.7;;
77802;SDS011;66993;48.256;16.422;2023-08-06T01:57:17;0.8;;;0.7;;
77802;SDS011;66993;48.256;16.422;2023-08-06T02:02:18;1.3;;;1.0;;
77802;SDS011;66993;48.256;16.422;2023-08-06T02:07:19;1.7;;;1.1;;
77802;SDS011;66993;48.256;16.422;2023-08-06T02:12:21;1.5;;;1.3;;
77802;SDS011;66993;48.256;16.422;2023-08-06T02:17:22;3.6;;;1.4;;
77802;SDS011;66993;48.256;16.422;2023-08-06T02:22:23;2.1;;;1.1;;
77802;SDS011;66993;48.256;16.422;2023-08-06T02:27:24;1.7;;;1.2;;
77802;SDS011;66993;48.256;16.422;2023-08-06T02:32:27;2.1;;;1.4;;
77802;SDS011;66993;48.256;16.422;2023-08-06T02:37:27;2.1;;;1.7;;
77802;SDS011;66993;48.256;16.422;2023-08-06T02:42:29;1.6;;;1.1;;
77802;SDS011;66993;48.256;16.422;2023-08-06T02:47:29;2.3;;;1.4;;
77802;SDS011;66993;48.256;16.422;2023-08-06T02:52:31;2.8;;;1.5;;
77802;SDS011;66993;48.256;16.422;2023-08-06T02:57:32;3.4;;;1.6;;
77802;SDS011;66993;48.256;16.422;2023-08-06T03:02:33;2.6;;;1.6;;
77802;SDS011;66993;48.256;16.422;2023-08-06T03:07:34;2.8;;;1.6;;
77802;SDS011;66993;48.256;16.422;2023-08-06T03:12:36;2.3;;;1.5;;
77802;SDS011;66993;48.256;16.422;2023-08-06T03:17:37;2.7;;;1.5;;
77802;SDS011;66993;48.256;16.422;2023-08-06T03:22:39;3.3;;;1.6;;
77802;SDS011;66993;48.256;16.422;2023-08-06T03:27:40;3.3;;;1.7;;
77802;SDS011;66993;48.256;16.422;2023-08-06T03:32:41;2.3;;;1.5;;
77802;SDS011;66993;48.256;16.422;2023-08-06T03:37:42;2.2;;;1.6;;
77802;SDS011;66993;48.256;16.422;2023-08-06T03:42:43;2.7;;;2.0;;
77802;SDS011;66993;48.256;16.422;2023-08-06T03:47:45;3.4;;;2.1;;
77802;SDS011;66993;48.256;16.422;2023-08-06T03:52:46;3.4;;;2.1;;
77802;SDS011;66993;48.256;16.422;2023-08-06T03:57:47;2.9;;;1.8;;
77802;SDS011;66993;48.256;16.422;2023-08-06T04:02:49;3.3;;;1.8;;
77802;SDS011;66993;48.256;16.422;2023-08-06T04:07:50;2.6;;;1.9;;
77802;SDS011;66993;48.256;16.422;2023-08-06T04:12:51;3.3;;;1.9;;
77802;SDS011;66993;48.256;16.422;2023-08-06T04:17:52;3.1;;;2.2;;
77802;SDS011;66993;48.256;16.422;2023-08-06T04:22:54;3.4;;;1.7;;
77802;SDS011;66993;48.256;16.422;2023-08-06T04:27:55;3.5;;;2.0;;
77802;SDS011;66993;48.256;16.422;2023-08-06T04:32:56;2.8;;;2.0;;
77802;SDS011;66993;48.256;16.422;2023-08-06T04:37:57;3.5;;;2.1;;
77802;SDS011;66993;48.256;16.422;2023-08-06T04:42:59;3.2;;;2.2;;
77802;SDS011;66993;48.256;16.422;2023-08-06T04:48:00;2.9;;;1.8;;
77802;SDS011;66993;48.256;16.422;2023-08-06T04:53:02;3.2;;;1.9;;
77802;SDS011;66993;48.256;16.422;2023-08-06T04:58:03;3.7;;;1.7;;
77802;SDS011;66993;48.256;16.422;2023-08-06T05:03:06;3.0;;;2.0;;
77802;SDS011;66993;48.256;16.422;2023-08-06T05:08:05;3.7;;;2.4;;
77802;SDS011;66993;48.256;16.422;2023-08-06T05:13:06;3.1;;;1.6;;
77802;SDS011;66993;48.256;16.422;2023-08-06T05:18:08;2.5;;;1.8;;
77802;SDS011;66993;48.256;16.422;2023-08-06T05:23:09;3.3;;;1.7;;
77802;SDS011;66993;48.256;16.422;2023-08-06T05:28:10;2.7;;;1.8;;
77802;SDS011;66993;48.256;16.422;2023-08-06T05:33:12;2.6;;;1.9;;
77802;SDS011;66993;48.256;16.422;2023-08-06T05:38:13;2.7;;;1.5;;
77802;SDS011;66993;48.256;16.422;2023-08-06T05:43:14;2.7;;;1.8;;
77802;SDS011;66993;48.256;16.422;2023-08-06T05:48:15;2.8;;;1.9;;
77802;SDS011;66993;48.256;16.422;2023-08-06T05:53:17;3.9;;;1.9;;
77802;SDS011;66993;48.256;16.422;2023-08-06T05:58:18;3.0;;;1.9;;
77802;SDS011;66993;48.256;16.422;2023-08-06T06:03:19;2.3;;;1.5;;
77802;SDS011;66993;48.256;16.422;2023-08-06T06:08:21;2.5;;;1.6;;
77802;SDS011;66993;48.256;16.422;2023-08-06T06:13:22;2.8;;;1.7;;
77802;SDS011;66993;48.256;16.422;2023-08-06T06:18:23;3.8;;;2.2;;
77802;SDS011;66993;48.256;16.422;2023-08-06T06:23:25;3.3;;;2.0;;
77802;SDS011;66993;48.256;16.422;2023-08-06T06:28:26;4.3;;;1.9;;
77802;SDS011;66993;48.256;16.422;2023-08-06T06:33:32;3.7;;;2.0;;
77802;SDS011;66993;48.256;16.422;2023-08-06T06:38:28;3.2;;;1.8;;
77802;SDS011;66993;48.256;16.422;2023-08-06T06:43:30;3.2;;;2.1;;
77802;SDS011;66993;48.256;16.422;2023-08-06T06:48:31;3.1;;;1.9;;
77802;SDS011;66993;48.256;16.422;2023-08-06T06:53:32;2.8;;;1.8;;
77802;SDS011;66993;48.256;16.422;2023-08-06T06:58:33;2.8;;;1.8;;
77802;SDS011;66993;48.256;16.422;2023-08-06T07:03:35;3.1;;;1.9;;
77802;SDS011;66993;48.256;16.422;2023-08-06T07:08:36;2.9;;;1.8;;
77802;SDS011;66993;48.256;16.422;2023-08-06T07:13:37;3.3;;;1.9;;
77802;SDS011;66993;48.256;16.422;2023-08-06T07:18:39;3.2;;;1.9;;
77802;SDS011;66993;48.256;16.422;2023-08-06T07:23:40;2.9;;;1.9;;
77802;SDS011;66993;48.256;16.422;2023-08-06T07:28:41;2.9;;;2.0;;
77802;SDS011;66993;48.256;16.422;2023-08-06T07:33:42;3.3;;;2.2;;
77802;SDS011;66993;48.256;16.422;2023-08-06T07:38:44;3.0;;;2.3;;
77802;SDS011;66993;48.256;16.422;2023-08-06T07:43:45;3.1;;;1.6;;
77802;SDS011;66993;48.256;16.422;2023-08-06T07:48:47;2.4;;;1.5;;
77802;SDS011;66993;48.256;16.422;2023-08-06T07:53:47;2.4;;;1.8;;
77802;SDS011;66993;48.256;16.422;2023-08-06T07:58:49;2.6;;;1.7;;
77802;SDS011;66993;48.256;16.422;2023-08-06T08:03:50;3.1;;;2.0;;
77802;SDS011;66993;48.256;16.422;2023-08-06T08:08:51;2.7;;;1.7;;
77802;SDS011;66993;48.256;16.422;2023-08-06T08:13:52;3.4;;;1.8;;
77802;SDS011;66993;48.256;16.422;2023-08-06T08:18:55;3.6;;;2.1;;
77802;SDS011;66993;48.256;16.422;2023-08-06T08:23:55;3.4;;;2.1;;
77802;SDS011;66993;48.256;16.422;2023-08-06T08:28:57;3.7;;;2.1;;
77802;SDS011;66993;48.256;16.422;2023-08-06T08:33:57;3.6;;;1.8;;
77802;SDS011;66993;48.256;16.422;2023-08-06T08:38:59;3.2;;;1.8;;
77802;SDS011;66993;48.256;16.422;2023-08-06T08:44:00;4.3;;;2.0;;
77802;SDS011;66993;48.256;16.422;2023-08-06T08:49:02;3.0;;;2.0;;
77802;SDS011;66993;48.256;16.422;2023-08-06T08:54:03;3.2;;;2.1;;
77802;SDS011;66993;48.256;16.422;2023-08-06T08:59:04;3.1;;;2.0;;
77802;SDS011;66993;48.256;16.422;2023-08-06T09:04:05;4.0;;;2.5;;
77802;SDS011;66993;48.256;16.422;2023-08-06T09:09:08;3.0;;;2.2;;
77802;SDS011;66993;48.256;16.422;2023-08-06T09:14:08;3.6;;;2.3;;
77802;SDS011;66993;48.256;16.422;2023-08-06T09:19:10;3.3;;;2.3;;
77802;SDS011;66993;48.256;16.422;2023-08-06T09:24:10;3.7;;;2.2;;
77802;SDS011;66993;48.256;16.422;2023-08-06T09:29:12;3.2;;;2.2;;
77802;SDS011;66993;48.256;16.422;2023-08-06T09:34:14;3.1;;;2.2;;
77802;SDS011;66993;48.256;16.422;2023-08-06T09:39:14;4.1;;;2.1;;
77802;SDS011;66993;48.256;16.422;2023-08-06T09:44:15;4.4;;;2.7;;
77802;SDS011;66993;48.256;16.422;2023-08-06T09:49:17;4.0;;;2.2;;
77802;SDS011;66993;48.256;16.422;2023-08-06T09:54:17;3.1;;;2.0;;
77802;SDS011;66993;48.256;16.422;2023-08-06T09:59:19;4.0;;;2.2;;
77802;SDS011;66993;48.256;16.422;2023-08-06T10:04:20;3.5;;;2.5;;
77802;SDS011;66993;48.256;16.422;2023-08-06T10:09:21;3.4;;;2.3;;
77802;SDS011;66993;48.256;16.422;2023-08-06T10:14:24;3.0;;;1.9;;
77802;SDS011;66993;48.256;16.422;2023-08-06T10:19:24;3.4;;;2.0;;
77802;SDS011;66993;48.256;16.422;2023-08-06T10:24:25;3.2;;;1.9;;
77802;SDS011;66993;48.256;16.422;2023-08-06T10:29:35;2.9;;;2.0;;
77802;SDS011;66993;48.256;16.422;2023-08-06T10:39:29;2.8;;;1.8;;
77802;SDS011;66993;48.256;16.422;2023-08-06T10:44:30;2.8;;;1.6;;
77802;SDS011;66993;48.256;16.422;2023-08-06T10:49:31;3.9;;;2.1;;
77802;SDS011;66993;48.256;16.422;2023-08-06T10:54:33;4.1;;;2.1;;
77802;SDS011;66993;48.256;16.422;2023-08-06T10:59:34;4.4;;;2.3;;
77802;SDS011;66993;48.256;16.422;2023-08-06T11:04:35;4.0;;;1.9;;
77802;SDS011;66993;48.256;16.422;2023-08-06T11:09:36;3.2;;;2.0;;
77802;SDS011;66993;48.256;16.422;2023-08-06T11:14:38;3.2;;;2.2;;
77802;SDS011;66993;48.256;16.422;2023-08-06T11:19:40;4.1;;;2.7;;
77802;SDS011;66993;48.256;16.422;2023-08-06T11:24:40;3.4;;;2.7;;
77802;SDS011;66993;48.256;16.422;2023-08-06T11:29:41;3.7;;;2.5;;
77802;SDS011;66993;48.256;16.422;2023-08-06T11:34:42;4.8;;;2.7;;
77802;SDS011;66993;48.256;16.422;2023-08-06T11:39:45;3.9;;;2.7;;
77802;SDS011;66993;48.256;16.422;2023-08-06T11:44:45;4.5;;;3.1;;
77802;SDS011;66993;48.256;16.422;2023-08-06T11:49:47;4.2;;;3.5;;
77802;SDS011;66993;48.256;16.422;2023-08-06T11:54:49;4.0;;;2.4;;
77802;SDS011;66993;48.256;16.422;2023-08-06T11:59:49;4.0;;;2.7;;
77802;SDS011;66993;48.256;16.422;2023-08-06T12:04:59;4.1;;;3.2;;
77802;SDS011;66993;48.256;16.422;2023-08-06T12:09:51;5.3;;;3.6;;
77802;SDS011;66993;48.256;16.422;2023-08-06T12:14:53;6.3;;;3.4;;
77802;SDS011;66993;48.256;16.422;2023-08-06T12:19:54;4.6;;;3.0;;
77802;SDS011;66993;48.256;16.422;2023-08-06T12:24:55;4.7;;;2.9;;
77802;SDS011;66993;48.256;16.422;2023-08-06T12:29:56;4.8;;;3.4;;
77802;SDS011;66993;48.256;16.422;2023-08-06T12:34:58;5.5;;;3.4;;
77802;SDS011;66993;48.256;16.422;2023-08-06T12:39:59;4.0;;;3.1;;
77802;SDS011;66993;48.256;16.422;2023-08-06T12:45:00;4.5;;;2.8;;
77802;SDS011;66993;48.256;16.422;2023-08-06T12:50:01;5.5;;;2.9;;
77802;SDS011;66993;48.256;16.422;2023-08-06T12:55:03;5.6;;;3.0;;
77802;SDS011;66993;48.256;16.422;2023-08-06T13:00:04;4.6;;;3.1;;
77802;SDS011;66993;48.256;16.422;2023-08-06T13:05:05;4.1;;;3.0;;
77802;SDS011;66993;48.256;16.422;2023-08-06T13:10:07;4.7;;;2.7;;
77802;SDS011;66993;48.256;16.422;2023-08-06T13:15:08;4.1;;;2.5;;
77802;SDS011;66993;48.256;16.422;2023-08-06T13:20:09;4.6;;;3.0;;
77802;SDS011;66993;48.256;16.422;2023-08-06T13:25:10;4.1;;;2.9;;
77802;SDS011;66993;48.256;16.422;2023-08-06T13:30:12;5.1;;;3.2;;
77802;SDS011;66993;48.256;16.422;2023-08-06T13:35:13;4.0;;;2.8;;
77802;SDS011;66993;48.256;16.422;2023-08-06T13:40:14;4.6;;;2.9;;
77802;SDS011;66993;48.256;16.422;2023-08-06T13:45:15;4.4;;;3.1;;
77802;SDS011;66993;48.256;16.422;2023-08-06T13:50:17;5.4;;;3.1;;
77802;SDS011;66993;48.256;16.422;2023-08-06T13:55:18;6.0;;;3.0;;
77802;SDS011;66993;48.256;16.422;2023-08-06T14:00:19;5.0;;;2.7;;
77802;SDS011;66993;48.256;16.422;2023-08-06T14:05:21;4.0;;;3.0;;
77802;SDS011;66993;48.256;16.422;2023-08-06T14:10:22;4.7;;;2.8;;
77802;SDS011;66993;48.256;16.422;2023-08-06T14:15:24;4.1;;;2.9;;
77802;SDS011;66993;48.256;16.422;2023-08-06T14:20:24;4.5;;;2.9;;
77802;SDS011;66993;48.256;16.422;2023-08-06T14:25:26;4.7;;;2.7;;
77802;SDS011;66993;48.256;16.422;2023-08-06T14:30:27;4.4;;;2.5;;
77802;SDS011;66993;48.256;16.422;2023-08-06T14:35:28;4.5;;;2.9;;
77802;SDS011;66993;48.256;16.422;2023-08-06T14:40:29;3.5;;;1.9;;
77802;SDS011;66993;48.256;16.422;2023-08-06T14:45:31;3.0;;;1.6;;
77802;SDS011;66993;48.256;16.422;2023-08-06T14:50:32;2.7;;;1.4;;
77802;SDS011;66993;48.256;16.422;2023-08-06T14:55:33;3.5;;;1.4;;
77802;SDS011;66993;48.256;16.422;2023-08-06T15:00:34;4.1;;;1.6;;
77802;SDS011;66993;48.256;16.422;2023-08-06T15:05:36;4.0;;;1.5;;
77802;SDS011;66993;48.256;16.422;2023-08-06T15:10:37;3.2;;;1.4;;
77802;SDS011;66993;48.256;16.422;2023-08-06T15:15:38;3.6;;;1.5;;
77802;SDS011;66993;48.256;16.422;2023-08-06T15:20:39;3.3;;;1.4;;
77802;SDS011;66993;48.256;16.422;2023-08-06T15:25:41;3.2;;;1.5;;
77802;SDS011;66993;48.256;16.422;2023-08-06T15:30:43;3.1;;;1.6;;
77802;SDS011;66993;48.256;16.422;2023-08-06T15:35:43;2.7;;;1.5;;
77802;SDS011;66993;48.256;16.422;2023-08-06T15:40:45;2.4;;;1.1;;
77802;SDS011;66993;48.256;16.422;2023-08-06T15:45:46;1.7;;;1.0;;
77802;SDS011;66993;48.256;16.422;2023-08-06T15:50:47;2.2;;;1.1;;
77802;SDS011;66993;48.256;16.422;2023-08-06T15:55:48;2.7;;;1.3;;
77802;SDS011;66993;48.256;16.422;2023-08-06T16:00:49;3.3;;;1.1;;
77802;SDS011;66993;48.256;16.422;2023-08-06T16:05:51;1.4;;;0.8;;
77802;SDS011;66993;48.256;16.422;2023-08-06T16:10:52;1.7;;;1.0;;
77802;SDS011;66993;48.256;16.422;2023-08-06T16:15:54;1.5;;;1.0;;
77802;SDS011;66993;48.256;16.422;2023-08-06T16:20:55;1.6;;;0.9;;
77802;SDS011;66993;48.256;16.422;2023-08-06T16:25:56;1.0;;;0.9;;
77802;SDS011;66993;48.256;16.422;2023-08-06T16:30:57;2.4;;;0.8;;
77802;SDS011;66993;48.256;16.422;2023-08-06T16:35:58;1.1;;;0.6;;
77802;SDS011;66993;48.256;16.422;2023-08-06T16:41:00;1.6;;;0.9;;
77802;SDS011;66993;48.256;16.422;2023-08-06T16:46:01;1.9;;;1.2;;
77802;SDS011;66993;48.256;16.422;2023-08-06T16:51:02;1.7;;;1.1;;
77802;SDS011;66993;48.256;16.422;2023-08-06T16:56:04;1.5;;;0.8;;
77802;SDS011;66993;48.256;16.422;2023-08-06T17:01:05;1.2;;;0.8;;
77802;SDS011;66993;48.256;16.422;2023-08-06T17:06:07;1.2;;;0.9;;
77802;SDS011;66993;48.256;16.422;2023-08-06T17:11:07;2.4;;;1.2;;
77802;SDS011;66993;48.256;16.422;2023-08-06T17:16:09;2.3;;;1.1;;
77802;SDS011;66993;48.256;16.422;2023-08-06T17:21:10;1.6;;;0.8;;
77802;SDS011;66993;48.256;16.422;2023-08-06T17:26:11;1.5;;;0.8;;
77802;SDS011;66993;48.256;16.422;2023-08-06T17:31:12;1.5;;;1.0;;
77802;SDS011;66993;48.256;16.422;2023-08-06T17:36:14;1.8;;;1.1;;
77802;SDS011;66993;48.256;16.422;2023-08-06T17:41:15;2.2;;;1.0;;
77802;SDS011;66993;48.256;16.422;2023-08-06T17:46:16;1.3;;;0.7;;
77802;SDS011;66993;48.256;16.422;2023-08-06T17:51:17;1.0;;;0.9;;
77802;SDS011;66993;48.256;16.422;2023-08-06T17:56:19;1.5;;;0.8;;
77802;SDS011;66993;48.256;16.422;2023-08-06T18:01:20;2.6;;;0.9;;
77802;SDS011;66993;48.256;16.422;2023-08-06T18:06:21;1.3;;;0.9;;
77802;SDS011;66993;48.256;16.422;2023-08-06T18:11:22;0.8;;;0.7;;
77802;SDS011;66993;48.256;16.422;2023-08-06T18:16:24;1.5;;;0.8;;
77802;SDS011;66993;48.256;16.422;2023-08-06T18:21:25;2.3;;;0.8;;
77802;SDS011;66993;48.256;16.422;2023-08-06T18:26:26;1.5;;;0.9;;
77802;SDS011;66993;48.256;16.422;2023-08-06T18:31:27;1.2;;;1.0;;
77802;SDS011;66993;48.256;16.422;2023-08-06T18:36:29;1.0;;;0.6;;
77802;SDS011;66993;48.256;16.422;2023-08-06T18:41:30;1.3;;;0.7;;
77802;SDS011;66993;48.256;16.422;2023-08-06T18:46:31;2.2;;;1.0;;
77802;SDS011;66993;48.256;16.422;2023-08-06T18:51:32;1.9;;;1.3;;
77802;SDS011;66993;48.256;16.422;2023-08-06T18:56:34;1.2;;;0.9;;
77802;SDS011;66993;48.256;16.422;2023-08-06T19:01:35;1.4;;;0.7;;
77802;SDS011;66993;48.256;16.422;2023-08-06T19:06:37;0.8;;;0.7;;
77802;SDS011;66993;48.256;16.422;2023-08-06T19:11:37;1.2;;;1.1;;
77802;SDS011;66993;48.256;16.422;2023-08-06T19:16:39;1.2;;;0.9;;
77802;SDS011;66993;48.256;16.422;2023-08-06T19:21:40;0.8;;;0.8;;
77802;SDS011;66993;48.256;16.422;2023-08-06T19:26:41;1.5;;;0.5;;
77802;SDS011;66993;48.256;16.422;2023-08-06T19:31:43;0.6;;;0.6;;
77802;SDS011;66993;48.256;16.422;2023-08-06T19:36:44;1.7;;;1.0;;
77802;SDS011;66993;48.256;16.422;2023-08-06T19:41:45;1.4;;;0.9;;
77802;SDS011;66993;48.256;16.422;2023-08-06T19:46:47;1.5;;;1.0;;
77802;SDS011;66993;48.256;16.422;2023-08-06T19:51:48;0.6;;;0.6;;
77802;SDS011;66993;48.256;16.422;2023-08-06T19:56:49;1.3;;;0.8;;
77802;SDS011;66993;48.256;16.422;2023-08-06T20:01:50;1.6;;;0.9;;
77802;SDS011;66993;48.256;16.422;2023-08-06T20:06:52;2.3;;;1.0;;
77802;SDS011;66993;48.256;16.422;2023-08-06T20:11:53;1.4;;;1.1;;
77802;SDS011;66993;48.256;16.422;2023-08-06T20:16:54;2.1;;;0.8;;
77802;SDS011;66993;48.256;16.422;2023-08-06T20:21:55;1.5;;;0.7;;
77802;SDS011;66993;48.256;16.422;2023-08-06T20:26:57;1.6;;;0.9;;
77802;SDS011;66993;48.256;16.422;2023-08-06T20:31:58;1.3;;;0.9;;
77802;SDS011;66993;48.256;16.422;2023-08-06T20:36:59;1.9;;;1.0;;
77802;SDS011;66993;48.256;16.422;2023-08-06T20:42:00;2.2;;;0.8;;
77802;SDS011;66993;48.256;16.422;2023-08-06T20:47:02;1.6;;;0.8;;
77802;SDS011;66993;48.256;16.422;2023-08-06T20:52:03;2.6;;;1.0;;
77802;SDS011;66993;48.256;16.422;2023-08-06T20:57:05;1.5;;;0.9;;
77802;SDS011;66993;48.256;16.422;2023-08-06T21:02:05;1.2;;;1.0;;
77802;SDS011;66993;48.256;16.422;2023-08-06T21:07:07;1.5;;;0.8;;
77802;SDS011;66993;48.256;16.422;2023-08-06T21:12:08;2.7;;;0.9;;
77802;SDS011;66993;48.256;16.422;2023-08-06T21:17:10;2.3;;;0.8;;
77802;SDS011;66993;48.256;16.422;2023-08-06T21:22:10;1.1;;;1.0;;
77802;SDS011;66993;48.256;16.422;2023-08-06T21:27:12;1.7;;;1.0;;
77802;SDS011;66993;48.256;16.422;2023-08-06T21:32:13;1.2;;;0.7;;
77802;SDS011;66993;48.256;16.422;2023-08-06T21:37:14;0.9;;;0.8;;
77802;SDS011;66993;48.256;16.422;2023-08-06T21:42:15;1.4;;;0.8;;
77802;SDS011;66993;48.256;16.422;2023-08-06T21:47:17;1.6;;;1.0;;
77802;SDS011;66993;48.256;16.422;2023-08-06T21:52:18;1.5;;;1.0;;
77802;SDS011;66993;48.256;16.422;2023-08-06T21:57:19;4.8;;;1.5;;
77802;SDS011;66993;48.256;16.422;2023-08-06T22:02:20;1.5;;;0.8;;
77802;SDS011;66993;48.256;16.422;2023-08-06T22:07:22;2.3;;;1.0;;
77802;SDS011;66993;48.256;16.422;2023-08-06T22:12:23;1.7;;;1.1;;
77802;SDS011;66993;48.256;16.422;2023-08-06T22:17:24;0.9;;;0.9;;
77802;SDS011;66993;48.256;16.422;2023-08-06T22:22:25;1.0;;;0.6;;
77802;SDS011;66993;48.256;16.422;2023-08-06T22:27:27;1.1;;;0.6;;
77802;SDS011;66993;48.256;16.422;2023-08-06T22:32:28;3.1;;;0.9;;
77802;SDS011;66993;48.256;16.422;2023-08-06T22:37:29;1.5;;;1.1;;
77802;SDS011;66993;48.256;16.422;2023-08-06T22:42:30;1.5;;;1.0;;
77802;SDS011;66993;48.256;16.422;2023-08-06T22:47:32;2.4;;;0.6;;
77802;SDS011;66993;48.256;16.422;2023-08-06T22:52:33;1.4;;;0.7;;
77802;SDS011;66993;48.256;16.422;2023-08-06T22:57:35;1.9;;;0.9;;
77802;SDS011;66993;48.256;16.422;2023-08-06T23:02:35;1.2;;;1.1;;
77802;SDS011;66993;48.256;16.422;2023-08-06T23:07:37;1.2;;;1.1;;
77802;SDS011;66993;48.256;16.422;2023-08-06T23:12:38;0.9;;;0.7;;
77802;SDS011;66993;48.256;16.422;2023-08-06T23:17:39;1.8;;;0.8;;
77802;SDS011;66993;48.256;16.422;2023-08-06T23:22:40;3.1;;;1.1;;
77802;SDS011;66993;48.256;16.422;2023-08-06T23:27:42;1.8;;;0.9;;
77802;SDS011;66993;48.256;16.422;2023-08-06T23:32:43;1.4;;;1.1;;
77802;SDS011;66993;48.256;16.422;2023-08-06T23:37:44;2.1;;;0.9;;
77802;SDS011;66993;48.256;16.422;2023-08-06T23:42:45;2.5;;;0.9;;
77802;SDS011;66993;48.256;16.422;2023-08-06T23:47:48;2.0;;;0.9;;
77802;SDS011;66993;48.256;16.422;2023-08-06T23:52:48;1.5;;;1.1;;
77802;SDS011;66993;48.256;16.422;2023-08-06T23:57:51;1.6;;;1.2;;
